Time;durP1;ratioP1;P1;durP2;ratioP2;P2;SDS_P1;SDS_P2;PMS_P1;PMS_P2;Temp;Humidity;BMP_temperature;BMP_pressure;BME280_temperature;BME280_humidity;BME280_pressure;Samples;Min_cycle;Max_cycle;Signal;HPM_P1;HPM_P2
2022/03/25 00:01:19;;;;;;;32.38;10.52;;;;;;;;;;4906374;29;20029;-94
2022/03/25 00:03:45;;;;;;;30.33;11.35;;;;;;;;;;4948608;28;20015;-93
2022/03/25 00:09:01;;;;;;;32.15;10.30;;;;;;;;;;5299516;23;20106;-92
2022/03/25 00:11:31;;;;;;;27.50;10.60;;;;;;;;;;4972356;28;20015;-95
2022/03/25 00:13:57;;;;;;;22.83;9.50;;;;;;;;;;4963052;28;20031;-94
2022/03/25 00:16:24;;;;;;;25.08;10.60;;;;;;;;;;4968762;28;20039;-93
2022/03/25 00:18:52;;;;;;;25.27;10.77;;;;;;;;;;4963576;28;20027;-94
2022/03/25 00:24:11;;;;;;;25.58;10.88;;;;;;;;;;4967961;28;20027;-94
2022/03/25 00:26:41;;;;;;;26.15;10.57;;;;;;;;;;4965296;28;20059;-94
2022/03/25 00:29:32;;;;;;;23.60;9.40;;;;;;;;;;4965219;28;20031;-94
2022/03/25 00:32:03;;;;;;;21.63;9.35;;;;;;;;;;4967127;28;20036;-94
2022/03/25 00:34:43;;;;;;;23.80;9.48;;;;;;;;;;4963802;28;20502;-94
2022/03/25 00:37:10;;;;;;;24.17;9.00;;;;;;;;;;4967632;28;20094;-90
2022/03/25 00:39:47;;;;;;;23.40;8.27;;;;;;;;;;4969388;28;20023;-93
2022/03/25 00:42:13;;;;;;;24.20;8.93;;;;;;;;;;4967185;28;20037;-94
2022/03/25 00:44:49;;;;;;;27.27;9.60;;;;;;;;;;4996519;23;20055;-93
2022/03/25 00:47:18;;;;;;;21.55;9.35;;;;;;;;;;4965286;28;20012;-92
2022/03/25 00:49:47;;;;;;;21.63;9.55;;;;;;;;;;4961025;29;20014;-91
2022/03/25 00:52:30;;;;;;;20.33;8.98;;;;;;;;;;4943145;29;20051;-92
2022/03/25 00:54:56;;;;;;;20.13;8.23;;;;;;;;;;4973158;23;20115;-94
2022/03/25 00:57:23;;;;;;;31.20;9.93;;;;;;;;;;4964957;29;20036;-90
2022/03/25 00:59:49;;;;;;;23.17;9.98;;;;;;;;;;4959090;29;20455;-92
2022/03/25 01:02:15;;;;;;;26.75;10.63;;;;;;;;;;4960429;29;20079;-93
2022/03/25 01:04:41;;;;;;;26.73;9.52;;;;;;;;;;4962462;29;20035;-92
2022/03/25 01:07:11;;;;;;;24.58;10.77;;;;;;;;;;4972421;29;20471;-93
2022/03/25 01:09:37;;;;;;;27.05;9.73;;;;;;;;;;4967641;29;20102;-90
2022/03/25 01:12:03;;;;;;;29.85;9.77;;;;;;;;;;4962188;29;20487;-93
2022/03/25 01:14:36;;;;;;;23.15;9.85;;;;;;;;;;4959392;29;20130;-93
2022/03/25 01:17:04;;;;;;;26.42;9.73;;;;;;;;;;4960624;29;20038;-94
2022/03/25 01:19:53;;;;;;;24.25;9.50;;;;;;;;;;5156786;23;20145;-95
2022/03/25 01:22:21;;;;;;;23.45;9.07;;;;;;;;;;4966760;28;20039;-93
2022/03/25 01:24:48;;;;;;;24.80;8.98;;;;;;;;;;4962204;28;20027;-90
2022/03/25 01:27:14;;;;;;;26.05;9.32;;;;;;;;;;4963229;28;20411;-93
2022/03/25 01:29:59;;;;;;;23.88;9.20;;;;;;;;;;4973429;28;20027;-90
2022/03/25 01:32:25;;;;;;;26.15;7.95;;;;;;;;;;4966759;28;20126;-93
2022/03/25 01:34:51;;;;;;;23.77;8.70;;;;;;;;;;4970234;28;20423;-94
2022/03/25 01:37:18;;;;;;;22.45;9.13;;;;;;;;;;4971090;28;20027;-92
2022/03/25 01:39:49;;;;;;;25.60;9.73;;;;;;;;;;4969157;28;20053;-93
2022/03/25 01:42:15;;;;;;;24.27;8.65;;;;;;;;;;5034235;23;20051;-92
2022/03/25 01:45:02;;;;;;;;;;;;;;;;;;;;;
2022/03/25 01:47:31;;;;;;;26.17;8.98;;;;;;;;;;4962866;28;20543;-90
2022/03/25 01:52:50;;;;;;;22.95;8.57;;;;;;;;;;4963432;29;20398;-92
2022/03/25 01:55:17;;;;;;;22.42;8.73;;;;;;;;;;4943095;29;20125;-93
2022/03/25 01:57:55;;;;;;;23.33;8.52;;;;;;;;;;4942066;29;20031;-94
2022/03/25 02:00:21;;;;;;;25.63;9.75;;;;;;;;;;4942570;29;20027;-96
2022/03/25 02:05:47;;;;;;;19.83;8.38;;;;;;;;;;4959739;29;20027;-94
2022/03/25 02:08:14;;;;;;;19.45;8.15;;;;;;;;;;4942469;29;20031;-94
2022/03/25 02:10:41;;;;;;;20.50;8.20;;;;;;;;;;4943456;29;20031;-96
2022/03/25 02:13:08;;;;;;;23.77;7.88;;;;;;;;;;4942544;29;20035;-94
2022/03/25 02:15:36;;;;;;;20.67;7.90;;;;;;;;;;4942619;29;20172;-96
2022/03/25 02:18:24;;;;;;;17.90;7.57;;;;;;;;;;4962970;29;20030;-96
2022/03/25 02:20:54;;;;;;;22.25;8.32;;;;;;;;;;4944853;29;20051;-93
2022/03/25 02:23:25;;;;;;;28.00;8.48;;;;;;;;;;4946059;29;20086;-94
2022/03/25 02:25:56;;;;;;;18.75;7.57;;;;;;;;;;4943915;29;20031;-91
2022/03/25 02:28:23;;;;;;;19.00;7.55;;;;;;;;;;4946509;29;20023;-93
2022/03/25 02:30:52;;;;;;;20.63;8.15;;;;;;;;;;4944444;29;20031;-92
2022/03/25 02:33:18;;;;;;;25.13;8.40;;;;;;;;;;4947568;29;20023;-93
2022/03/25 02:35:50;;;;;;;22.05;8.27;;;;;;;;;;4943172;29;20484;-93
2022/03/25 02:38:18;;;;;;;21.00;8.63;;;;;;;;;;4942758;29;20023;-95
2022/03/25 02:40:44;;;;;;;22.30;8.02;;;;;;;;;;4945151;28;20062;-93
2022/03/25 02:43:13;;;;;;;24.23;8.73;;;;;;;;;;4962504;28;20074;-94
2022/03/25 02:45:46;;;;;;;22.77;8.13;;;;;;;;;;4966174;28;20118;-95
2022/03/25 02:48:15;;;;;;;31.67;9.43;;;;;;;;;;4962909;28;20023;-93
2022/03/25 02:50:51;;;;;;;24.63;9.05;;;;;;;;;;4962353;28;20039;-93
2022/03/25 02:53:21;;;;;;;21.40;8.93;;;;;;;;;;4976712;28;20034;-96
2022/03/25 03:00:59;;;;;;;23.33;8.55;;;;;;;;;;3760534;23;20044;-94
2022/03/25 03:06:17;;;;;;;24.75;8.73;;;;;;;;;;4962916;29;20411;-93
2022/03/25 03:09:04;;;;;;;;;;;;;;;;;;;;;
2022/03/25 03:11:35;;;;;;;20.67;7.68;;;;;;;;;;4926680;29;20051;-94
2022/03/25 03:14:11;;;;;;;22.60;7.95;;;;;;;;;;4952126;29;20035;-90
2022/03/25 03:21:53;;;;;;;22.42;7.95;;;;;;;;;;5014270;23;20166;-92
2022/03/25 03:24:56;;;;;;;22.52;9.27;;;;;;;;;;4974990;28;20031;-93
2022/03/25 03:27:26;;;;;;;28.77;7.53;;;;;;;;;;4981971;28;20070;-93
2022/03/25 03:29:52;;;;;;;19.48;7.85;;;;;;;;;;4964013;28;20526;-91
2022/03/25 03:32:19;;;;;;;22.08;7.68;;;;;;;;;;4966158;28;20118;-94
2022/03/25 03:35:04;;;;;;;21.23;7.95;;;;;;;;;;4990057;23;20040;-94
2022/03/25 03:37:50;;;;;;;19.52;7.60;;;;;;;;;;4970401;29;20035;-95
2022/03/25 03:40:20;;;;;;;23.58;7.93;;;;;;;;;;4966479;29;20031;-92
2022/03/25 03:43:05;;;;;;;17.38;7.90;;;;;;;;;;4947680;29;20027;-92
2022/03/25 03:45:34;;;;;;;23.90;9.73;;;;;;;;;;4965759;28;20039;-93
2022/03/25 03:48:14;;;;;;;25.50;9.00;;;;;;;;;;4949308;29;20476;-93
2022/03/25 03:50:50;;;;;;;27.15;9.32;;;;;;;;;;4946464;29;20032;-95
2022/03/25 03:53:56;;;;;;;24.42;8.80;;;;;;;;;;4959607;29;20027;-93
2022/03/25 03:56:26;;;;;;;22.75;8.13;;;;;;;;;;4920159;29;20110;-89
2022/03/25 03:58:52;;;;;;;24.40;8.52;;;;;;;;;;4952937;29;20038;-93
2022/03/25 04:01:24;;;;;;;21.98;8.70;;;;;;;;;;4955649;29;20148;-93
2022/03/25 04:03:53;;;;;;;25.02;9.05;;;;;;;;;;4955379;29;20046;-93
2022/03/25 04:06:22;;;;;;;28.13;9.27;;;;;;;;;;4947166;29;20051;-92
2022/03/25 04:11:50;;;;;;;28.10;9.63;;;;;;;;;;4922119;29;20409;-94
2022/03/25 04:14:28;;;;;;;21.05;9.30;;;;;;;;;;4917380;29;20039;-90
2022/03/25 04:16:55;;;;;;;26.67;8.23;;;;;;;;;;4958053;29;20035;-94
2022/03/25 04:19:23;;;;;;;27.15;9.32;;;;;;;;;;4954792;29;20039;-92
2022/03/25 04:21:50;;;;;;;27.30;9.27;;;;;;;;;;4966365;29;20039;-93
2022/03/25 04:24:39;;;;;;;26.08;9.55;;;;;;;;;;4956221;29;20007;-92
2022/03/25 04:27:07;;;;;;;30.52;9.07;;;;;;;;;;4933950;29;20504;-94
2022/03/25 04:29:38;;;;;;;22.05;8.43;;;;;;;;;;4969443;23;20050;-94
2022/03/25 04:35:02;;;;;;;30.23;8.68;;;;;;;;;;4981912;28;20043;-91
2022/03/25 04:37:35;;;;;;;22.23;7.97;;;;;;;;;;4960902;28;20031;-91
2022/03/25 04:40:01;;;;;;;27.98;7.47;;;;;;;;;;4971776;29;20029;-94
2022/03/25 04:42:31;;;;;;;27.70;9.48;;;;;;;;;;4963485;29;20142;-92
2022/03/25 04:45:03;;;;;;;29.90;8.90;;;;;;;;;;4965419;29;20086;-93
2022/03/25 04:47:35;;;;;;;20.13;8.02;;;;;;;;;;4961202;29;20043;-93
2022/03/25 04:50:02;;;;;;;22.73;7.57;;;;;;;;;;4961332;29;20023;-89
2022/03/25 04:52:35;;;;;;;23.55;7.00;;;;;;;;;;4960206;29;20032;-90
2022/03/25 04:55:04;;;;;;;18.65;7.25;;;;;;;;;;4960334;29;20040;-89
2022/03/25 04:57:30;;;;;;;25.08;8.10;;;;;;;;;;4970071;28;20042;-89
2022/03/25 04:59:56;;;;;;;23.85;7.72;;;;;;;;;;4977144;28;20050;-89
2022/03/25 05:02:23;;;;;;;23.52;8.10;;;;;;;;;;4962663;29;20062;-90
2022/03/25 05:04:55;;;;;;;21.40;7.28;;;;;;;;;;4957924;29;20396;-93
2022/03/25 05:07:25;;;;;;;21.45;7.72;;;;;;;;;;4958072;29;20086;-93
2022/03/25 05:09:58;;;;;;;19.40;6.75;;;;;;;;;;4958723;29;20023;-89
2022/03/25 05:12:31;;;;;;;20.88;7.53;;;;;;;;;;4957479;29;20039;-91
2022/03/25 05:14:57;;;;;;;15.82;6.57;;;;;;;;;;4957874;29;20143;-93
2022/03/25 05:17:26;;;;;;;17.92;7.20;;;;;;;;;;4958135;29;20114;-94
2022/03/25 05:20:09;;;;;;;;;;;;;;;;;;;;;
2022/03/25 05:22:38;;;;;;;22.33;7.05;;;;;;;;;;4941385;29;20035;-94
2022/03/25 05:25:08;;;;;;;23.60;7.65;;;;;;;;;;4958906;29;20038;-90
2022/03/25 05:27:44;;;;;;;18.58;7.22;;;;;;;;;;4957908;29;20107;-88
2022/03/25 05:30:24;;;;;;;18.30;7.68;;;;;;;;;;4958129;29;20039;-88
2022/03/25 05:35:50;;;;;;;16.27;6.97;;;;;;;;;;4918774;29;20456;-88
2022/03/25 05:38:19;;;;;;;19.10;6.30;;;;;;;;;;4910340;29;20507;-90
2022/03/25 05:40:45;;;;;;;15.52;5.97;;;;;;;;;;4919697;29;20148;-91
2022/03/25 05:43:17;;;;;;;20.90;6.88;;;;;;;;;;4935730;29;20415;-89
2022/03/25 05:45:44;;;;;;;17.80;7.65;;;;;;;;;;4909647;29;20044;-90
2022/03/25 05:48:18;;;;;;;21.50;7.90;;;;;;;;;;4903835;29;20028;-91
2022/03/25 05:50:45;;;;;;;33.83;9.68;;;;;;;;;;4898763;29;20401;-91
2022/03/25 05:53:26;;;;;;;27.73;9.45;;;;;;;;;;4902402;29;20158;-90
2022/03/25 05:55:53;;;;;;;18.50;7.82;;;;;;;;;;4902510;29;20149;-88
2022/03/25 05:58:22;;;;;;;21.17;7.53;;;;;;;;;;4903334;29;20028;-90
2022/03/25 06:00:57;;;;;;;40.25;16.15;;;;;;;;;;4904166;29;20036;-91
2022/03/25 06:03:23;;;;;;;35.28;13.85;;;;;;;;;;4902744;29;20028;-93
2022/03/25 06:05:52;;;;;;;20.13;8.35;;;;;;;;;;4911520;29;20035;-91
2022/03/25 06:08:18;;;;;;;39.03;14.40;;;;;;;;;;4939793;29;20031;-92
2022/03/25 06:10:55;;;;;;;29.02;12.80;;;;;;;;;;4941227;29;20035;-93
2022/03/25 06:13:21;;;;;;;55.88;20.33;;;;;;;;;;4940309;29;20408;-93
2022/03/25 06:15:48;;;;;;;61.42;22.38;;;;;;;;;;4941475;29;20042;-95
2022/03/25 06:18:14;;;;;;;57.97;21.17;;;;;;;;;;4941310;29;20031;-93
2022/03/25 06:20:40;;;;;;;51.90;19.00;;;;;;;;;;4942667;29;20046;-91
2022/03/25 06:23:15;;;;;;;39.45;16.55;;;;;;;;;;4939969;29;20034;-92
2022/03/25 06:25:42;;;;;;;48.20;21.35;;;;;;;;;;4941037;29;20066;-92
2022/03/25 06:28:09;;;;;;;52.63;21.77;;;;;;;;;;4941249;29;20034;-92
2022/03/25 06:30:39;;;;;;;47.55;19.08;;;;;;;;;;4941781;28;20464;-91
2022/03/25 06:33:09;;;;;;;69.03;30.15;;;;;;;;;;4952799;28;20138;-91
2022/03/25 06:35:37;;;;;;;76.03;36.10;;;;;;;;;;4957261;28;20019;-92
2022/03/25 06:38:07;;;;;;;56.28;23.23;;;;;;;;;;4958533;29;20028;-93
2022/03/25 06:49:31;;;;;;;48.70;25.08;;;;;;;;;;4992907;23;20138;-93
2022/03/25 06:51:57;;;;;;;42.08;21.00;;;;;;;;;;4958506;28;20114;-91
2022/03/25 06:54:23;;;;;;;31.42;16.58;;;;;;;;;;4959086;28;20023;-91
2022/03/25 06:56:49;;;;;;;43.00;20.30;;;;;;;;;;4960177;28;20022;-93
2022/03/25 06:59:16;;;;;;;38.03;19.45;;;;;;;;;;4961025;28;20033;-94
2022/03/25 07:01:45;;;;;;;31.85;16.13;;;;;;;;;;4959774;28;20022;-94
2022/03/25 07:04:11;;;;;;;22.20;12.70;;;;;;;;;;4959940;28;20031;-91
2022/03/25 07:07:05;;;;;;;20.70;10.63;;;;;;;;;;4960083;28;20058;-93
2022/03/25 07:09:31;;;;;;;16.25;6.82;;;;;;;;;;4962102;28;20063;-94
2022/03/25 07:21:31;;;;;;;11.43;4.57;;;;;;;;;;4921481;29;20067;-91
2022/03/25 07:23:58;;;;;;;8.27;4.53;;;;;;;;;;4919217;29;20107;-91
2022/03/25 07:26:29;;;;;;;10.77;4.72;;;;;;;;;;4901450;29;20040;-93
2022/03/25 07:29:16;;;;;;;14.50;4.13;;;;;;;;;;4901904;29;20139;-92
2022/03/25 07:31:45;;;;;;;11.70;4.38;;;;;;;;;;4901314;29;20096;-93
2022/03/25 07:34:20;;;;;;;11.27;4.43;;;;;;;;;;4923419;29;20046;-93
2022/03/25 07:36:46;;;;;;;7.82;4.43;;;;;;;;;;4956775;29;20560;-92
2022/03/25 07:39:21;;;;;;;8.65;3.83;;;;;;;;;;4955429;28;20024;-93
2022/03/25 07:41:50;;;;;;;10.63;4.10;;;;;;;;;;4957640;28;20066;-91
2022/03/25 07:44:19;;;;;;;6.22;3.65;;;;;;;;;;4964536;28;20058;-94
2022/03/25 07:46:46;;;;;;;7.78;4.00;;;;;;;;;;4965153;28;20037;-92
2022/03/25 07:51:47;;;;;;;9.43;3.88;;;;;;;;;;4990314;23;20073;-91
2022/03/25 07:54:17;;;;;;;6.40;3.17;;;;;;;;;;4964213;28;20027;-92
2022/03/25 07:59:36;;;;;;;7.05;3.38;;;;;;;;;;4983228;28;20022;-87
2022/03/25 08:02:02;;;;;;;;;;;;;;;;;;4996800;28;20041;-93
2022/03/25 08:04:35;;;;;;;9.07;4.13;;;;;;;;;;4966689;28;19941;-91
2022/03/25 08:07:01;;;;;;;10.25;4.45;;;;;;;;;;4966136;28;20110;-90
2022/03/25 08:09:27;;;;;;;9.75;4.18;;;;;;;;;;4965337;28;20078;-92
2022/03/25 08:11:53;;;;;;;11.77;4.72;;;;;;;;;;4966009;28;20035;-93
2022/03/25 08:14:23;;;;;;;12.77;4.68;;;;;;;;;;4974809;28;20054;-92
2022/03/25 08:16:49;;;;;;;8.07;4.30;;;;;;;;;;4982703;28;20031;-93
2022/03/25 08:19:35;;;;;;;11.07;4.70;;;;;;;;;;4973772;28;20045;-94
2022/03/25 08:22:04;;;;;;;9.98;4.65;;;;;;;;;;4964697;28;20034;-92
2022/03/25 08:33:28;;;;;;;9.63;3.47;;;;;;;;;;4983420;28;20105;-93
2022/03/25 08:36:02;;;;;;;6.65;3.72;;;;;;;;;;4967010;28;20094;-92
2022/03/25 08:38:31;;;;;;;10.75;4.28;;;;;;;;;;4959974;28;20058;-90
2022/03/25 08:41:00;;;;;;;10.38;4.35;;;;;;;;;;4964032;28;20163;-90
2022/03/25 08:43:32;;;;;;;12.15;4.30;;;;;;;;;;4968821;28;20105;-92
2022/03/25 08:45:59;;;;;;;8.20;4.72;;;;;;;;;;4968145;28;20046;-94
2022/03/25 08:48:25;;;;;;;9.95;4.35;;;;;;;;;;4961345;28;20031;-88
2022/03/25 08:50:59;;;;;;;8.10;4.10;;;;;;;;;;4951382;28;20047;-91
2022/03/25 08:56:29;;;;;;;8.88;4.40;;;;;;;;;;4967845;28;20058;-89
2022/03/25 08:58:58;;;;;;;8.70;3.85;;;;;;;;;;4952364;28;20019;-86
2022/03/25 09:01:24;;;;;;;8.45;3.92;;;;;;;;;;4962035;28;20502;-86
2022/03/25 09:03:51;;;;;;;12.18;3.90;;;;;;;;;;4961642;28;20059;-86
2022/03/25 09:06:17;;;;;;;15.65;4.15;;;;;;;;;;4946080;28;20031;-84
2022/03/25 09:08:43;;;;;;;7.53;4.32;;;;;;;;;;4949875;28;20094;-85
2022/03/25 09:11:10;;;;;;;9.65;3.40;;;;;;;;;;4980361;28;20023;-86
2022/03/25 09:13:37;;;;;;;5.65;3.38;;;;;;;;;;4963660;28;20388;-88
2022/03/25 09:16:03;;;;;;;10.65;4.05;;;;;;;;;;4980873;28;20118;-86
2022/03/25 09:18:29;;;;;;;12.75;3.47;;;;;;;;;;4982137;28;20086;-89
2022/03/25 09:20:58;;;;;;;11.43;4.93;;;;;;;;;;4963101;28;20050;-87
2022/03/25 09:23:24;;;;;;;8.25;3.63;;;;;;;;;;4982121;28;20031;-87
2022/03/25 09:25:50;;;;;;;8.38;3.30;;;;;;;;;;4964289;28;20054;-87
2022/03/25 09:28:16;;;;;;;9.95;3.78;;;;;;;;;;4964475;28;20488;-86
2022/03/25 09:30:42;;;;;;;6.90;2.92;;;;;;;;;;4963477;28;20034;-86
2022/03/25 09:33:14;;;;;;;7.45;3.08;;;;;;;;;;4964286;28;20030;-87
2022/03/25 09:35:46;;;;;;;11.25;4.15;;;;;;;;;;4962223;28;20039;-86
2022/03/25 09:38:12;;;;;;;5.45;2.78;;;;;;;;;;4963019;28;20027;-84
2022/03/25 09:40:41;;;;;;;6.97;2.67;;;;;;;;;;4961215;28;20048;-86
2022/03/25 09:43:07;;;;;;;6.18;2.72;;;;;;;;;;4961687;28;20027;-84
2022/03/25 09:45:34;;;;;;;6.78;2.50;;;;;;;;;;4962392;28;20061;-84
2022/03/25 09:48:01;;;;;;;5.25;2.40;;;;;;;;;;4962855;28;20033;-84
2022/03/25 09:50:28;;;;;;;7.35;3.42;;;;;;;;;;4969760;28;20117;-85
2022/03/25 09:52:57;;;;;;;12.55;2.95;;;;;;;;;;4984676;28;20394;-83
2022/03/25 09:55:23;;;;;;;12.27;3.00;;;;;;;;;;5011636;28;20497;-83
2022/03/25 09:57:50;;;;;;;8.50;4.13;;;;;;;;;;4981917;28;20037;-85
2022/03/25 10:00:20;;;;;;;11.73;5.30;;;;;;;;;;4979530;28;20159;-88
2022/03/25 10:02:52;;;;;;;12.27;5.65;;;;;;;;;;4996818;28;20034;-84
2022/03/25 10:05:19;;;;;;;10.30;4.72;;;;;;;;;;4979480;28;20022;-84
2022/03/25 10:07:55;;;;;;;9.05;5.05;;;;;;;;;;4980057;28;20057;-83
2022/03/25 10:10:22;;;;;;;9.70;3.60;;;;;;;;;;4979690;28;20386;-85
2022/03/25 10:12:51;;;;;;;8.57;3.63;;;;;;;;;;4980128;28;20034;-85
2022/03/25 10:15:20;;;;;;;8.38;3.70;;;;;;;;;;4979822;28;20117;-84
2022/03/25 10:17:56;;;;;;;7.53;3.75;;;;;;;;;;4978748;28;20033;-86
2022/03/25 10:20:43;;;;;;;5.65;3.60;;;;;;;;;;4979429;28;20089;-84
2022/03/25 10:23:11;;;;;;;11.75;4.05;;;;;;;;;;4979483;28;20114;-84
2022/03/25 10:25:37;;;;;;;8.52;3.75;;;;;;;;;;4979162;28;20058;-84
2022/03/25 10:28:18;;;;;;;8.80;4.20;;;;;;;;;;4979306;28;20053;-87
2022/03/25 10:30:44;;;;;;;12.10;3.85;;;;;;;;;;4977453;28;20026;-86
2022/03/25 10:33:20;;;;;;;10.05;3.53;;;;;;;;;;4959635;28;20020;-85
2022/03/25 10:36:06;;;;;;;11.02;3.92;;;;;;;;;;4960506;28;20042;-84
2022/03/25 10:38:43;;;;;;;8.20;3.92;;;;;;;;;;4960085;28;20051;-85
2022/03/25 10:41:09;;;;;;;9.52;3.70;;;;;;;;;;4959072;28;20078;-89
2022/03/25 10:43:36;;;;;;;7.18;3.60;;;;;;;;;;4961876;28;20042;-88
2022/03/25 10:46:02;;;;;;;11.85;4.18;;;;;;;;;;4962138;28;20538;-90
2022/03/25 10:48:28;;;;;;;7.97;3.70;;;;;;;;;;4959822;28;20473;-87
2022/03/25 10:50:56;;;;;;;14.63;4.15;;;;;;;;;;4950896;29;20051;-87
2022/03/25 10:53:27;;;;;;;9.30;3.75;;;;;;;;;;4943427;29;20095;-92
2022/03/25 10:56:03;;;;;;;9.52;4.28;;;;;;;;;;4957768;29;20051;-89
2022/03/25 10:58:37;;;;;;;11.18;3.78;;;;;;;;;;4942373;29;20027;-89
2022/03/25 11:01:05;;;;;;;6.07;3.03;;;;;;;;;;4941889;29;20098;-90
2022/03/25 11:03:31;;;;;;;8.63;4.07;;;;;;;;;;4941584;29;20087;-89
2022/03/25 11:06:08;;;;;;;9.90;4.22;;;;;;;;;;4941567;29;20027;-94
2022/03/25 11:08:39;;;;;;;11.25;4.60;;;;;;;;;;4941178;29;20034;-89
2022/03/25 11:11:05;;;;;;;9.18;4.25;;;;;;;;;;4941673;29;20091;-90
2022/03/25 11:13:31;;;;;;;13.75;4.90;;;;;;;;;;4940856;29;20034;-89
2022/03/25 11:15:59;;;;;;;12.57;4.82;;;;;;;;;;4956447;29;20046;-90
2022/03/25 11:18:27;;;;;;;11.10;4.28;;;;;;;;;;4957165;28;20023;-90
2022/03/25 11:20:57;;;;;;;9.23;4.03;;;;;;;;;;4960499;29;20114;-89
2022/03/25 11:23:25;;;;;;;14.27;4.47;;;;;;;;;;4962535;29;20035;-89
2022/03/25 11:25:52;;;;;;;12.73;4.93;;;;;;;;;;4946009;29;20039;-89
2022/03/25 11:28:21;;;;;;;7.97;4.30;;;;;;;;;;4961336;29;20476;-88
2022/03/25 11:31:07;;;;;;;11.82;5.03;;;;;;;;;;4962059;29;20495;-89
2022/03/25 11:33:56;;;;;;;8.82;4.45;;;;;;;;;;4976615;28;20094;-88
2022/03/25 11:36:24;;;;;;;8.50;3.92;;;;;;;;;;4967646;29;20054;-90
2022/03/25 11:39:12;;;;;;;6.97;3.75;;;;;;;;;;4960521;28;20031;-89
2022/03/25 11:41:38;;;;;;;7.45;3.42;;;;;;;;;;4954774;28;20096;-89
2022/03/25 11:44:23;;;;;;;9.38;4.03;;;;;;;;;;4952844;29;20034;-89
2022/03/25 11:47:02;;;;;;;7.25;3.30;;;;;;;;;;4945530;28;20495;-91
2022/03/25 11:49:33;;;;;;;8.07;3.53;;;;;;;;;;4964359;28;20494;-90
2022/03/25 11:52:21;;;;;;;9.48;3.38;;;;;;;;;;4982622;28;20034;-90
2022/03/25 11:54:55;;;;;;;9.55;3.72;;;;;;;;;;4983163;28;20042;-89
2022/03/25 11:57:25;;;;;;;8.75;3.97;;;;;;;;;;4968900;28;20118;-88
2022/03/25 11:59:53;;;;;;;8.43;3.80;;;;;;;;;;4980563;28;20034;-84
2022/03/25 12:02:38;;;;;;;11.50;4.53;;;;;;;;;;4982519;28;20034;-92
2022/03/25 12:05:06;;;;;;;10.48;4.32;;;;;;;;;;4988336;28;20045;-87
2022/03/25 12:07:34;;;;;;;10.25;4.13;;;;;;;;;;4983309;28;20026;-88
2022/03/25 12:10:01;;;;;;;10.05;3.97;;;;;;;;;;4999471;28;20027;-90
2022/03/25 12:13:05;;;;;;;12.23;4.28;;;;;;;;;;4981684;28;20391;-90
2022/03/25 12:15:48;;;;;;;9.73;4.03;;;;;;;;;;4939162;29;20040;-88
2022/03/25 12:18:32;;;;;;;10.70;3.85;;;;;;;;;;4911630;29;20138;-89
2022/03/25 12:20:58;;;;;;;11.57;4.43;;;;;;;;;;4933988;29;20039;-88
2022/03/25 12:23:28;;;;;;;8.93;4.03;;;;;;;;;;4923380;29;20128;-92
2022/03/25 12:25:57;;;;;;;10.80;3.97;;;;;;;;;;4946014;28;20059;-90
2022/03/25 12:28:35;;;;;;;18.27;4.63;;;;;;;;;;4983164;28;20026;-89
2022/03/25 12:31:16;;;;;;;15.77;3.78;;;;;;;;;;4973275;28;20103;-89
2022/03/25 12:33:42;;;;;;;14.30;4.40;;;;;;;;;;4971427;28;20057;-91
2022/03/25 12:36:09;;;;;;;14.02;4.28;;;;;;;;;;4963028;28;20046;-90
2022/03/25 12:38:43;;;;;;;8.82;4.05;;;;;;;;;;4962843;28;20527;-92
2022/03/25 12:44:13;;;;;;;;;;;;;;;;;;4981866;28;20066;-93
2022/03/25 12:46:39;;;;;;;11.05;4.53;;;;;;;;;;4961142;28;19997;-86
2022/03/25 12:49:06;;;;;;;9.68;3.33;;;;;;;;;;4960923;28;20027;-89
2022/03/25 12:51:33;;;;;;;13.82;3.33;;;;;;;;;;4960649;28;20051;-89
2022/03/25 12:54:25;;;;;;;7.75;3.30;;;;;;;;;;4962216;28;20088;-91
2022/03/25 12:56:55;;;;;;;20.33;4.50;;;;;;;;;;4954198;28;20048;-90
2022/03/25 12:59:31;;;;;;;8.43;3.40;;;;;;;;;;4979938;28;20046;-90
2022/03/25 13:01:57;;;;;;;11.25;3.40;;;;;;;;;;4979685;28;20034;-89
2022/03/25 13:04:28;;;;;;;7.22;2.97;;;;;;;;;;4977923;28;20561;-89
2022/03/25 13:07:09;;;;;;;8.75;2.95;;;;;;;;;;4979692;28;20027;-90
2022/03/25 13:09:35;;;;;;;7.80;3.05;;;;;;;;;;4978552;28;20113;-88
2022/03/25 13:12:04;;;;;;;7.28;3.10;;;;;;;;;;4966554;28;20014;-88
2022/03/25 13:14:30;;;;;;;7.78;3.20;;;;;;;;;;4975517;28;20038;-87
2022/03/25 13:17:00;;;;;;;8.50;3.00;;;;;;;;;;4985226;28;20081;-89
2022/03/25 13:19:30;;;;;;;7.95;2.78;;;;;;;;;;4976852;28;20023;-90
2022/03/25 13:22:21;;;;;;;6.05;2.55;;;;;;;;;;4978303;28;20038;-90
2022/03/25 13:24:55;;;;;;;7.25;3.35;;;;;;;;;;4967312;28;20038;-95
2022/03/25 13:27:21;;;;;;;;;;;;;;;;;;4961584;28;20038;-90
2022/03/25 13:29:47;;;;;;;8.90;2.78;;;;;;;;;;4977041;28;19913;-89
2022/03/25 13:32:38;;;;;;;8.10;3.13;;;;;;;;;;4976111;28;20542;-89
2022/03/25 13:35:13;;;;;;;7.03;2.65;;;;;;;;;;4976684;28;20074;-90
2022/03/25 13:38:02;;;;;;;7.43;2.65;;;;;;;;;;4976464;28;20027;-92
2022/03/25 13:40:33;;;;;;;7.60;3.33;;;;;;;;;;4965200;28;20034;-92
2022/03/25 13:46:18;;;;;;;5.82;3.28;;;;;;;;;;4919221;29;20032;-92
2022/03/25 13:49:12;;;;;;;5.97;2.50;;;;;;;;;;4923906;29;20055;-93
2022/03/25 13:51:42;;;;;;;7.35;2.72;;;;;;;;;;4895093;29;20052;-86
2022/03/25 13:54:10;;;;;;;8.85;3.13;;;;;;;;;;4938477;29;20035;-91
2022/03/25 13:59:30;;;;;;;8.95;2.72;;;;;;;;;;4999857;28;20126;-89
2022/03/25 14:01:58;;;;;;;8.32;3.38;;;;;;;;;;4981479;28;20057;-95
2022/03/25 14:04:26;;;;;;;10.32;3.30;;;;;;;;;;4965157;28;20049;-94
2022/03/25 14:06:57;;;;;;;5.78;3.03;;;;;;;;;;4965529;28;20035;-96
2022/03/25 14:09:36;;;;;;;9.18;3.67;;;;;;;;;;4981110;28;20626;-91
2022/03/25 14:12:15;;;;;;;11.30;3.33;;;;;;;;;;4982303;28;20026;-92
2022/03/25 14:14:45;;;;;;;9.35;3.38;;;;;;;;;;5002690;28;20038;-94
2022/03/25 14:17:12;;;;;;;8.10;2.65;;;;;;;;;;4982065;28;20045;-92
2022/03/25 14:19:38;;;;;;;12.05;3.45;;;;;;;;;;4979917;28;20069;-91
2022/03/25 14:22:08;;;;;;;11.85;3.42;;;;;;;;;;4979453;28;20022;-90
2022/03/25 14:24:36;;;;;;;11.43;3.97;;;;;;;;;;4985145;28;20529;-89
2022/03/25 14:27:09;;;;;;;10.43;3.53;;;;;;;;;;5000425;28;20030;-91
2022/03/25 14:29:35;;;;;;;7.53;3.58;;;;;;;;;;4981756;28;20030;-89
2022/03/25 14:32:02;;;;;;;8.93;4.03;;;;;;;;;;4981916;28;20030;-90
2022/03/25 14:34:28;;;;;;;7.40;3.28;;;;;;;;;;4985832;28;20026;-88
2022/03/25 14:36:54;;;;;;;10.85;3.50;;;;;;;;;;4982458;28;20038;-91
2022/03/25 14:39:22;;;;;;;11.32;4.18;;;;;;;;;;4987407;28;20027;-91
2022/03/25 14:41:51;;;;;;;10.45;3.90;;;;;;;;;;5205073;23;20046;-91
2022/03/25 14:44:18;;;;;;;10.52;4.00;;;;;;;;;;5209339;23;20035;-88
2022/03/25 14:46:48;;;;;;;11.25;3.70;;;;;;;;;;5164635;23;20046;-89
2022/03/25 14:49:29;;;;;;;12.20;3.97;;;;;;;;;;4997436;23;20043;-88
2022/03/25 14:51:55;;;;;;;8.07;3.70;;;;;;;;;;5025098;23;20063;-87
2022/03/25 14:54:25;;;;;;;11.93;3.60;;;;;;;;;;4978385;28;20012;-90
2022/03/25 14:56:51;;;;;;;13.00;3.42;;;;;;;;;;5016518;23;20049;-89
2022/03/25 14:59:27;;;;;;;8.13;3.33;;;;;;;;;;4978227;28;20031;-87
2022/03/25 15:01:54;;;;;;;9.23;3.38;;;;;;;;;;4980649;28;20027;-89
2022/03/25 15:04:20;;;;;;;9.90;3.53;;;;;;;;;;4976956;28;20007;-89
2022/03/25 15:06:48;;;;;;;12.40;4.90;;;;;;;;;;4974335;28;20039;-88
2022/03/25 15:09:14;;;;;;;18.75;4.63;;;;;;;;;;4967876;28;20034;-88
2022/03/25 15:11:44;;;;;;;11.27;4.13;;;;;;;;;;4977284;28;20035;-95
2022/03/25 15:14:13;;;;;;;14.57;4.38;;;;;;;;;;4980278;28;20015;-93
2022/03/25 15:16:39;;;;;;;12.32;4.13;;;;;;;;;;4979956;28;20022;-92
2022/03/25 15:21:43;;;;;;;11.45;4.05;;;;;;;;;;4968499;29;20132;-90
2022/03/25 15:24:12;;;;;;;13.02;5.22;;;;;;;;;;4973754;29;20082;-90
2022/03/25 15:26:39;;;;;;;17.52;5.15;;;;;;;;;;4970809;28;20050;-93
2022/03/25 15:29:06;;;;;;;15.00;5.45;;;;;;;;;;4974328;29;20019;-92
2022/03/25 15:34:41;;;;;;;15.10;5.45;;;;;;;;;;4937339;28;20127;-92
2022/03/25 15:37:07;;;;;;;20.75;5.57;;;;;;;;;;4992815;28;20031;-95
2022/03/25 15:42:21;;;;;;;13.77;5.30;;;;;;;;;;5416727;23;20140;-94
2022/03/25 15:44:48;;;;;;;9.05;4.22;;;;;;;;;;4979521;23;20059;-96
2022/03/25 15:47:14;;;;;;;9.13;4.53;;;;;;;;;;4958396;29;20050;-87
2022/03/25 15:49:49;;;;;;;15.82;5.88;;;;;;;;;;4957179;29;20122;-88
2022/03/25 15:52:16;;;;;;;13.85;5.07;;;;;;;;;;4954668;29;20035;-91
2022/03/25 15:54:48;;;;;;;9.05;4.97;;;;;;;;;;4955435;29;20031;-91
2022/03/25 15:57:21;;;;;;;8.13;4.33;;;;;;;;;;4950707;29;20032;-90
2022/03/25 15:59:50;;;;;;;12.68;5.15;;;;;;;;;;4942542;29;20266;-93
2022/03/25 16:02:17;;;;;;;14.27;5.20;;;;;;;;;;4941743;29;20054;-92
2022/03/25 16:04:44;;;;;;;13.25;5.35;;;;;;;;;;4961743;28;20075;-94
2022/03/25 16:07:10;;;;;;;14.32;5.07;;;;;;;;;;4947436;29;20057;-91
2022/03/25 16:09:43;;;;;;;11.85;5.20;;;;;;;;;;4946952;29;20023;-93
2022/03/25 16:12:09;;;;;;;9.33;4.77;;;;;;;;;;4947079;28;20103;-92
2022/03/25 16:14:38;;;;;;;12.45;4.60;;;;;;;;;;4963447;28;20471;-89
2022/03/25 16:17:07;;;;;;;11.55;4.80;;;;;;;;;;4954510;29;20047;-91
2022/03/25 16:19:34;;;;;;;14.38;5.28;;;;;;;;;;4948500;29;20023;-90
2022/03/25 16:22:00;;;;;;;11.55;5.00;;;;;;;;;;4947464;29;20035;-92
2022/03/25 16:24:26;;;;;;;11.85;5.63;;;;;;;;;;4948934;29;20541;-92